createdAt,value
2023-11-18T00:02:25.854Z,1.68
2023-11-18T00:04:53.874Z,1.70
2023-11-18T00:07:21.669Z,1.66
2023-11-18T00:09:49.529Z,1.76
2023-11-18T00:12:17.487Z,1.75
2023-11-18T00:14:46.596Z,1.77
2023-11-18T00:17:14.427Z,1.70
2023-11-18T00:19:43.746Z,1.73
2023-11-18T00:22:12.239Z,1.71
2023-11-18T00:24:40.079Z,1.69
2023-11-18T00:27:07.819Z,1.71
2023-11-18T00:29:35.751Z,1.63
2023-11-18T00:32:04.280Z,1.58
2023-11-18T00:34:32.776Z,1.57
2023-11-18T00:37:02.070Z,1.62
2023-11-18T00:39:29.983Z,1.48
2023-11-18T00:41:57.957Z,1.62
2023-11-18T00:44:25.814Z,1.64
2023-11-18T00:46:53.689Z,1.61
2023-11-18T00:49:21.676Z,1.72
2023-11-18T00:51:49.462Z,1.69
2023-11-18T00:54:18.705Z,1.65
2023-11-18T00:56:46.572Z,1.61
2023-11-18T00:59:14.377Z,1.55
2023-11-18T01:01:42.455Z,1.60
2023-11-18T01:04:10.457Z,1.56
2023-11-18T01:06:38.993Z,1.66
2023-11-18T01:09:07.981Z,1.78
2023-11-18T01:11:37.685Z,1.79
2023-11-18T01:14:05.689Z,1.77
2023-11-18T01:16:34.146Z,1.84
2023-11-18T01:19:02.145Z,1.83
2023-11-18T01:21:29.977Z,1.75
2023-11-18T01:23:57.871Z,1.72
2023-11-18T01:26:25.635Z,1.83
2023-11-18T01:28:56.637Z,1.88
2023-11-18T01:31:24.571Z,1.91
2023-11-18T01:33:52.395Z,1.79
2023-11-18T01:36:20.244Z,1.89
2023-11-18T01:38:48.508Z,1.85
2023-11-18T01:41:16.432Z,1.78
2023-11-18T01:43:47.967Z,1.81
2023-11-18T01:46:20.885Z,1.79
2023-11-18T01:48:48.772Z,1.68
2023-11-18T01:51:16.666Z,1.64
2023-11-18T01:53:46.216Z,1.70
2023-11-18T01:56:14.018Z,1.65
2023-11-18T01:58:42.110Z,1.60
2023-11-18T02:01:11.279Z,1.58
2023-11-18T02:03:42.107Z,1.47
2023-11-18T02:06:11.743Z,1.45
2023-11-18T02:08:39.972Z,1.39
2023-11-18T02:11:17.541Z,1.59
2023-11-18T02:13:49.495Z,1.65
2023-11-18T02:16:18.956Z,1.59
2023-11-18T02:18:50.370Z,1.62
2023-11-18T02:21:19.367Z,1.44
2023-11-18T02:23:50.131Z,1.40
2023-11-18T02:26:24.551Z,1.36
2023-11-18T02:28:53.647Z,1.40
2023-11-18T02:31:30.665Z,1.45
2023-11-18T02:34:05.077Z,1.28
2023-11-18T02:36:37.452Z,1.31
2023-11-18T02:39:09.393Z,1.40
2023-11-18T02:41:41.454Z,1.48
2023-11-18T02:44:11.346Z,1.57
2023-11-18T02:46:40.785Z,1.63
2023-11-18T02:49:09.453Z,1.57
2023-11-18T02:51:40.352Z,1.81
2023-11-18T02:54:11.528Z,1.97
2023-11-18T02:56:41.015Z,2.03
2023-11-18T02:59:08.764Z,2.13
2023-11-18T03:01:36.818Z,2.08
2023-11-18T03:04:05.950Z,2.13
2023-11-18T03:06:34.839Z,2.28
2023-11-18T03:09:02.658Z,2.16
2023-11-18T03:11:31.201Z,2.19
2023-11-18T03:14:00.472Z,2.12
2023-11-18T03:16:28.549Z,2.28
2023-11-18T03:18:57.021Z,2.44
2023-11-18T03:21:24.951Z,2.42
2023-11-18T03:23:53.998Z,2.47
2023-11-18T03:26:22.206Z,2.44
2023-11-18T03:28:50.864Z,2.48
2023-11-18T03:31:20.887Z,2.51
2023-11-18T03:33:48.749Z,2.55
2023-11-18T03:36:18.741Z,2.54
2023-11-18T03:38:46.729Z,2.76
2023-11-18T03:41:15.062Z,2.92
2023-11-18T03:43:43.012Z,2.87
2023-11-18T03:46:12.061Z,2.87
2023-11-18T03:48:41.348Z,2.67
2023-11-18T03:51:09.153Z,2.58
2023-11-18T03:53:37.032Z,2.56
2023-11-18T03:56:05.974Z,2.58
2023-11-18T03:58:34.056Z,2.57
2023-11-18T04:01:02.529Z,2.54
2023-11-18T04:03:30.486Z,2.58
2023-11-18T04:05:59.627Z,2.54
2023-11-18T04:08:28.250Z,2.54
2023-11-18T04:10:56.039Z,2.47
2023-11-18T04:13:24.147Z,2.55
2023-11-18T04:15:52.532Z,2.56
2023-11-18T04:18:20.272Z,2.55
2023-11-18T04:20:51.584Z,2.63
2023-11-18T04:23:20.913Z,2.67
2023-11-18T04:25:48.828Z,2.75
2023-11-18T04:28:16.747Z,2.79
2023-11-18T04:30:44.646Z,2.83
2023-11-18T04:33:15.315Z,2.82
2023-11-18T04:35:43.203Z,2.72
2023-11-18T04:38:11.096Z,2.62
2023-11-18T04:40:42.221Z,2.58
2023-11-18T04:43:11.946Z,2.47
2023-11-18T04:45:40.120Z,2.52
2023-11-18T04:48:08.143Z,2.40
2023-11-18T04:50:36.091Z,2.51
2023-11-18T04:53:05.674Z,2.57
2023-11-18T04:55:33.536Z,2.56
2023-11-18T04:58:02.751Z,2.45
2023-11-18T05:00:30.639Z,2.44
2023-11-18T05:03:00.009Z,2.51
2023-11-18T05:05:27.936Z,2.50
2023-11-18T05:07:55.792Z,2.48
2023-11-18T05:10:23.931Z,2.61
2023-11-18T05:12:56.836Z,2.55
2023-11-18T05:15:26.729Z,2.44
2023-11-18T05:17:55.191Z,2.58
2023-11-18T05:20:23.261Z,2.57
2023-11-18T05:22:51.081Z,2.56
2023-11-18T05:25:18.826Z,2.60
2023-11-18T05:27:46.615Z,2.60
2023-11-18T05:30:15.227Z,2.75
2023-11-18T05:32:44.428Z,2.63
2023-11-18T05:35:12.959Z,2.64
2023-11-18T05:37:42.188Z,2.67
2023-11-18T05:40:12.679Z,2.72
2023-11-18T05:42:42.678Z,2.58
2023-11-18T05:45:18.515Z,2.66
2023-11-18T05:47:47.914Z,2.76
2023-11-18T05:50:16.815Z,2.89
2023-11-18T05:52:44.785Z,2.90
2023-11-18T05:55:12.597Z,2.77
2023-11-18T05:57:40.388Z,2.94
2023-11-18T06:00:10.297Z,2.96
2023-11-18T06:02:40.738Z,3.09
2023-11-18T06:05:13.575Z,3.14
2023-11-18T06:07:44.535Z,3.16
2023-11-18T06:10:13.791Z,3.28
2023-11-18T06:12:42.159Z,3.41
2023-11-18T06:15:15.422Z,3.61
2023-11-18T06:17:46.838Z,3.72
2023-11-18T06:20:18.211Z,3.85
2023-11-18T06:22:46.272Z,3.87
2023-11-18T06:25:14.182Z,3.81
2023-11-18T06:27:42.265Z,4.04
2023-11-18T06:30:12.920Z,3.99
2023-11-18T06:32:42.052Z,3.95
2023-11-18T06:35:10.342Z,3.93
2023-11-18T06:37:39.606Z,4.03
2023-11-18T06:40:17.297Z,4.29
2023-11-18T06:42:48.062Z,4.23
2023-11-18T06:45:16.086Z,4.24
2023-11-18T06:47:45.288Z,4.29
2023-11-18T06:50:15.456Z,4.22
2023-11-18T06:52:47.690Z,4.29
2023-11-18T06:55:17.066Z,4.31
2023-11-18T06:57:45.505Z,4.48
2023-11-18T07:00:16.717Z,4.60
2023-11-18T07:02:45.077Z,4.59
2023-11-18T07:05:15.850Z,4.53
2023-11-18T07:07:46.130Z,4.55
2023-11-18T07:10:14.672Z,4.62
2023-11-18T07:12:42.587Z,4.51
2023-11-18T07:15:12.132Z,4.45
2023-11-18T07:17:40.129Z,4.47
2023-11-18T07:20:12.729Z,4.67
2023-11-18T07:22:41.125Z,4.65
2023-11-18T07:25:10.686Z,4.67
2023-11-18T07:27:38.507Z,4.66
2023-11-18T07:30:11.082Z,4.85
2023-11-18T07:32:39.536Z,4.75
2023-11-18T07:35:10.280Z,4.79
2023-11-18T07:37:38.317Z,4.97
2023-11-18T07:40:07.372Z,5.10
2023-11-18T07:42:36.590Z,5.16
2023-11-18T07:45:05.815Z,5.13
2023-11-18T07:47:35.243Z,5.17
2023-11-18T07:50:05.789Z,5.14
2023-11-18T07:52:33.599Z,5.36
2023-11-18T07:55:01.952Z,5.43
2023-11-18T07:57:30.272Z,5.63
2023-11-18T08:00:06.727Z,5.50
2023-11-18T08:02:41.780Z,5.63
2023-11-18T08:05:14.961Z,5.70
2023-11-18T08:07:46.109Z,5.66
2023-11-18T08:10:20.159Z,5.84
2023-11-18T08:12:49.361Z,5.75
2023-11-18T08:15:19.894Z,5.80
2023-11-18T08:17:48.555Z,5.66
2023-11-18T08:20:16.797Z,5.73
2023-11-18T08:22:46.665Z,5.67
2023-11-18T08:25:16.251Z,5.71
2023-11-18T08:27:44.529Z,5.98
2023-11-18T08:30:14.827Z,5.76
2023-11-18T08:32:46.298Z,5.72
2023-11-18T08:35:15.395Z,5.45
2023-11-18T08:37:44.601Z,5.52
2023-11-18T08:40:15.951Z,5.47
2023-11-18T08:42:49.023Z,5.50
2023-11-18T08:45:19.736Z,5.60
2023-11-18T08:47:49.104Z,5.65
2023-11-18T08:50:18.184Z,5.63
2023-11-18T08:52:48.295Z,5.72
2023-11-18T08:55:21.981Z,5.83
2023-11-18T08:57:59.421Z,5.75
2023-11-18T09:00:46.752Z,5.91
2023-11-18T09:03:25.597Z,5.91
2023-11-18T09:06:00.687Z,5.99
2023-11-18T09:08:30.924Z,6.16
2023-11-18T09:10:59.183Z,5.97
2023-11-18T09:13:29.877Z,5.90
2023-11-18T09:15:58.428Z,6.26
2023-11-18T09:18:28.536Z,6.22
2023-11-18T09:20:57.701Z,6.22
2023-11-18T09:23:26.750Z,6.22
2023-11-18T09:25:55.973Z,6.06
2023-11-18T09:28:26.535Z,6.16
2023-11-18T09:30:58.104Z,5.93
2023-11-18T09:33:30.251Z,6.01
2023-11-18T09:36:00.674Z,6.06
2023-11-18T09:38:30.385Z,6.03
2023-11-18T09:41:02.552Z,6.18
2023-11-18T09:43:33.613Z,6.15
2023-11-18T09:46:13.537Z,6.42
2023-11-18T09:48:53.926Z,6.18
2023-11-18T09:51:23.312Z,6.15
2023-11-18T09:53:53.546Z,6.44
2023-11-18T09:56:35.375Z,6.32
2023-11-18T09:59:09.290Z,6.28
2023-11-18T10:01:44.118Z,6.16
2023-11-18T10:04:14.327Z,6.29
2023-11-18T10:06:46.463Z,6.46
2023-11-18T10:09:18.603Z,6.26
2023-11-18T10:11:49.165Z,6.69
2023-11-18T10:14:17.944Z,6.52
2023-11-18T10:16:48.440Z,6.64
2023-11-18T10:19:18.934Z,6.55
2023-11-18T10:21:50.594Z,6.47
2023-11-18T10:24:21.535Z,6.62
2023-11-18T10:26:58.317Z,6.49
2023-11-18T10:29:29.471Z,6.50
2023-11-18T10:32:10.998Z,6.39
2023-11-18T10:34:41.029Z,6.50
2023-11-18T10:37:11.912Z,6.56
2023-11-18T10:39:39.796Z,6.74
2023-11-18T10:42:07.690Z,6.76
2023-11-18T10:44:35.422Z,7.11
2023-11-18T10:47:03.359Z,6.99
2023-11-18T10:49:37.899Z,7.09
2023-11-18T10:52:09.865Z,7.04
2023-11-18T10:54:38.606Z,7.12
2023-11-18T10:57:10.105Z,7.17
2023-11-18T10:59:38.817Z,7.25
2023-11-18T11:02:24.855Z,7.19
2023-11-18T11:04:54.032Z,7.29
2023-11-18T11:07:24.895Z,7.42
2023-11-18T11:09:57.729Z,7.37
2023-11-18T11:12:27.789Z,7.46
2023-11-18T11:15:01.894Z,7.29
2023-11-18T11:17:32.174Z,7.46
2023-11-18T11:20:18.649Z,7.18
2023-11-18T11:23:10.103Z,7.42
2023-11-18T11:25:46.280Z,7.39
2023-11-18T11:28:21.955Z,7.23
2023-11-18T11:30:57.656Z,7.24
2023-11-18T11:33:33.843Z,7.15
2023-11-18T11:36:07.042Z,7.29
2023-11-18T11:38:38.102Z,7.46
2023-11-18T11:41:09.615Z,7.24
2023-11-18T11:43:38.043Z,7.25
2023-11-18T11:46:11.734Z,7.35
2023-11-18T11:48:44.108Z,7.34
2023-11-18T11:51:27.348Z,7.42
2023-11-18T11:54:05.861Z,7.33
2023-11-18T11:56:44.344Z,7.32
2023-11-18T11:59:12.729Z,7.45
2023-11-18T12:01:47.954Z,7.67
2023-11-18T12:04:24.023Z,7.42
2023-11-18T12:07:05.584Z,7.51
2023-11-18T12:09:45.010Z,7.55
2023-11-18T12:12:20.399Z,7.52
2023-11-18T12:14:53.619Z,7.37
2023-11-18T12:17:23.481Z,7.36
2023-11-18T12:19:51.775Z,7.42
2023-11-18T12:22:25.512Z,7.60
2023-11-18T12:25:37.495Z,7.60
2023-11-18T12:28:16.120Z,7.46
2023-11-18T12:30:57.003Z,7.57
2023-11-18T12:33:27.693Z,7.48
2023-11-18T12:36:40.188Z,7.52
2023-11-18T12:39:51.934Z,7.30
2023-11-18T12:42:52.077Z,7.09
2023-11-18T12:45:44.922Z,7.06
2023-11-18T12:48:17.007Z,6.91
2023-11-18T12:50:47.227Z,6.93
2023-11-18T12:53:19.428Z,6.74
2023-11-18T12:55:49.665Z,6.72
2023-11-18T12:58:19.140Z,6.68
2023-11-18T13:00:48.378Z,6.67
2023-11-18T13:03:17.278Z,6.63
2023-11-18T13:05:46.353Z,6.71
2023-11-18T13:08:16.616Z,6.65
2023-11-18T13:10:45.480Z,6.63
2023-11-18T13:13:15.840Z,6.62
2023-11-18T13:15:43.855Z,6.57
2023-11-18T13:18:13.515Z,6.45
2023-11-18T13:20:42.298Z,6.59
2023-11-18T13:23:11.064Z,6.56
2023-11-18T13:25:40.555Z,6.51
2023-11-18T13:28:11.113Z,6.48
2023-11-18T13:30:40.953Z,6.51
2023-11-18T13:33:09.843Z,6.53
2023-11-18T13:35:39.419Z,6.44
2023-11-18T13:38:08.334Z,6.55
2023-11-18T13:40:45.137Z,6.50
2023-11-18T13:43:13.141Z,6.50
2023-11-18T13:45:43.630Z,6.45
2023-11-18T13:48:14.785Z,6.50
2023-11-18T13:50:44.918Z,6.58
2023-11-18T13:53:13.010Z,6.56
2023-11-18T13:55:41.064Z,6.57
2023-11-18T13:58:11.766Z,6.61
2023-11-18T14:00:40.042Z,6.55
2023-11-18T14:03:08.700Z,6.60
2023-11-18T14:05:38.463Z,6.58
2023-11-18T14:08:11.489Z,6.55
2023-11-18T14:10:42.010Z,6.54
2023-11-18T14:13:13.836Z,6.64
2023-11-18T14:15:44.056Z,6.59
2023-11-18T14:18:12.097Z,6.59
2023-11-18T14:20:40.041Z,6.65
2023-11-18T14:23:09.860Z,6.68
2023-11-18T14:25:39.416Z,6.65
2023-11-18T14:28:09.509Z,6.68
2023-11-18T14:30:37.495Z,6.71
2023-11-18T14:33:05.944Z,6.77
2023-11-18T14:35:33.827Z,6.79
2023-11-18T14:38:02.121Z,6.73
2023-11-18T14:40:31.301Z,6.80
2023-11-18T14:42:59.731Z,6.81
2023-11-18T14:45:27.523Z,6.78
2023-11-18T14:47:57.300Z,6.85
2023-11-18T14:50:27.630Z,6.81
2023-11-18T14:53:00.475Z,6.89
2023-11-18T14:55:28.667Z,6.90
2023-11-18T14:57:58.051Z,6.87
2023-11-18T15:00:28.280Z,6.87
2023-11-18T15:02:59.961Z,6.91
2023-11-18T15:05:29.069Z,6.90
2023-11-18T15:07:58.733Z,6.96
2023-11-18T15:10:28.354Z,6.89
2023-11-18T15:12:59.628Z,6.91
2023-11-18T15:15:33.499Z,6.81
2023-11-18T15:18:04.722Z,6.86
2023-11-18T15:20:33.183Z,6.81
2023-11-18T15:23:01.421Z,6.75
2023-11-18T15:25:29.664Z,6.80
2023-11-18T15:27:59.796Z,6.78
2023-11-18T15:30:28.510Z,6.73
2023-11-18T15:32:57.435Z,6.69
2023-11-18T15:35:26.161Z,6.71
2023-11-18T15:37:54.129Z,6.73
2023-11-18T15:40:26.214Z,6.72
2023-11-18T15:42:55.095Z,6.69
2023-11-18T15:45:25.612Z,6.72
2023-11-18T15:47:53.500Z,6.82
2023-11-18T15:50:22.335Z,6.80
2023-11-18T15:52:53.072Z,6.83
2023-11-18T15:55:22.254Z,6.77
2023-11-18T15:57:53.690Z,6.76
2023-11-18T16:00:25.707Z,6.73
2023-11-18T16:02:59.669Z,6.69
2023-11-18T16:05:34.906Z,6.73
2023-11-18T16:08:04.069Z,6.67
2023-11-18T16:10:32.198Z,6.71
2023-11-18T16:13:01.669Z,6.67
2023-11-18T16:15:31.327Z,6.66
2023-11-18T16:18:02.016Z,6.70
2023-11-18T16:20:33.222Z,6.58
2023-11-18T16:23:03.773Z,6.59
2023-11-18T16:25:32.216Z,6.61
2023-11-18T16:28:03.203Z,6.59
2023-11-18T16:30:32.128Z,6.65
2023-11-18T16:33:04.502Z,6.66
2023-11-18T16:35:32.904Z,6.66
2023-11-18T16:38:02.253Z,6.71
2023-11-18T16:40:30.696Z,6.66
2023-11-18T16:43:00.934Z,6.67
2023-11-18T16:45:29.818Z,6.69
2023-11-18T16:47:57.902Z,6.70
2023-11-18T16:50:27.725Z,6.75
2023-11-18T16:52:56.657Z,6.69
2023-11-18T16:55:25.007Z,6.71
2023-11-18T16:57:54.698Z,6.69
2023-11-18T17:00:24.825Z,6.72
2023-11-18T17:02:56.969Z,6.66
2023-11-18T17:05:30.081Z,6.69
2023-11-18T17:07:58.578Z,6.74
2023-11-18T17:10:26.415Z,6.79
2023-11-18T17:12:54.270Z,6.71
2023-11-18T17:15:22.363Z,6.72
2023-11-18T17:17:54.728Z,6.66
2023-11-18T17:20:23.090Z,6.69
2023-11-18T17:22:52.966Z,6.76
2023-11-18T17:25:24.472Z,6.79
2023-11-18T17:27:54.085Z,6.88
2023-11-18T17:30:22.340Z,6.86
2023-11-18T17:32:52.850Z,6.86
2023-11-18T17:35:21.408Z,6.83
2023-11-18T17:37:49.518Z,6.84
2023-11-18T17:40:22.440Z,6.77
2023-11-18T17:42:54.202Z,6.87
2023-11-18T17:45:25.291Z,6.92
2023-11-18T17:47:53.535Z,6.96
2023-11-18T17:50:21.587Z,6.95
2023-11-18T17:52:51.250Z,6.91
2023-11-18T17:55:20.664Z,6.96
2023-11-18T17:57:48.656Z,6.93
2023-11-18T18:00:23.427Z,6.92
2023-11-18T18:02:52.711Z,6.92
2023-11-18T18:05:21.497Z,6.94
2023-11-18T18:07:49.571Z,6.83
2023-11-18T18:10:17.565Z,6.91
2023-11-18T18:12:48.834Z,7.00
2023-11-18T18:15:16.718Z,6.95
2023-11-18T18:17:44.735Z,6.97
2023-11-18T18:20:14.640Z,6.93
2023-11-18T18:22:43.678Z,6.99
2023-11-18T18:25:13.330Z,7.05
2023-11-18T18:27:42.016Z,7.11
2023-11-18T18:30:12.569Z,7.17
2023-11-18T18:32:40.746Z,7.16
2023-11-18T18:35:09.523Z,7.06
2023-11-18T18:37:37.367Z,7.09
2023-11-18T18:40:06.027Z,7.23
2023-11-18T18:42:34.266Z,7.29
2023-11-18T18:45:02.228Z,7.29
2023-11-18T18:47:31.526Z,7.36
2023-11-18T18:50:00.015Z,7.29
2023-11-18T18:52:28.038Z,7.36
2023-11-18T18:54:56.234Z,7.36
2023-11-18T18:57:25.366Z,7.39
2023-11-18T18:59:53.459Z,7.46
2023-11-18T19:02:21.712Z,7.41
2023-11-18T19:04:51.217Z,7.33
2023-11-18T19:07:22.131Z,7.37
2023-11-18T19:09:50.726Z,7.35
2023-11-18T19:12:18.612Z,7.39
2023-11-18T19:14:46.764Z,7.47
2023-11-18T19:17:15.152Z,7.51
2023-11-18T19:19:43.757Z,7.52
2023-11-18T19:22:13.432Z,7.57
2023-11-18T19:24:43.732Z,7.68
2023-11-18T19:27:14.265Z,7.66
2023-11-18T19:29:45.144Z,7.67
2023-11-18T19:32:14.270Z,7.75
2023-11-18T19:34:42.457Z,7.76
2023-11-18T19:37:12.059Z,7.80
2023-11-18T19:39:42.463Z,7.89
2023-11-18T19:42:11.690Z,7.98
2023-11-18T19:44:40.390Z,7.98
2023-11-18T19:47:09.097Z,7.92
2023-11-18T19:49:37.319Z,8.03
2023-11-18T19:52:05.625Z,7.94
2023-11-18T19:54:34.418Z,7.92
2023-11-18T19:57:05.135Z,8.02
2023-11-18T19:59:33.784Z,8.02
2023-11-18T20:02:04.494Z,8.01
2023-11-18T20:04:34.595Z,7.92
2023-11-18T20:07:03.490Z,8.05
2023-11-18T20:09:33.145Z,8.10
2023-11-18T20:12:04.901Z,8.09
2023-11-18T20:14:38.017Z,8.24
2023-11-18T20:17:07.268Z,8.29
2023-11-18T20:19:36.789Z,8.28
2023-11-18T20:22:05.112Z,8.23
2023-11-18T20:24:32.895Z,8.26
2023-11-18T20:27:01.229Z,8.36
2023-11-18T20:29:30.253Z,8.30
2023-11-18T20:32:03.455Z,8.39
2023-11-18T20:34:31.517Z,8.37
2023-11-18T20:36:59.488Z,8.48
2023-11-18T20:39:30.165Z,8.45
2023-11-18T20:42:01.783Z,8.58
2023-11-18T20:44:38.145Z,8.63
2023-11-18T20:47:09.235Z,8.68
2023-11-18T20:49:41.403Z,8.68
2023-11-18T20:52:10.641Z,8.63
2023-11-18T20:54:38.710Z,8.50
2023-11-18T20:57:09.509Z,8.54
2023-11-18T20:59:37.872Z,8.66
2023-11-18T21:02:07.294Z,8.61
2023-11-18T21:04:37.535Z,8.84
2023-11-18T21:07:05.913Z,8.85
2023-11-18T21:09:33.658Z,8.90
2023-11-18T21:12:17.492Z,8.95
2023-11-18T21:14:49.055Z,8.88
2023-11-18T21:17:16.984Z,8.89
2023-11-18T21:19:46.096Z,8.77
2023-11-18T21:22:19.044Z,8.90
2023-11-18T21:24:47.106Z,8.91
2023-11-18T21:27:15.781Z,8.90
2023-11-18T21:29:44.113Z,8.83
2023-11-18T21:32:13.061Z,8.81
2023-11-18T21:34:41.664Z,8.99
2023-11-18T21:37:11.586Z,9.07
2023-11-18T21:39:40.787Z,9.15
2023-11-18T21:42:08.714Z,9.17
2023-11-18T21:44:38.177Z,9.06
2023-11-18T21:47:06.214Z,9.02
2023-11-18T21:49:34.034Z,9.14
2023-11-18T21:52:01.811Z,9.22
2023-11-18T21:54:32.066Z,9.17
2023-11-18T21:56:59.953Z,9.20
2023-11-18T21:59:27.911Z,9.28
2023-11-18T22:01:56.702Z,9.13
2023-11-18T22:04:24.557Z,9.18
2023-11-18T22:06:55.080Z,9.20
2023-11-18T22:09:24.958Z,9.17
2023-11-18T22:11:54.789Z,9.21
2023-11-18T22:14:22.647Z,9.22
2023-11-18T22:16:50.648Z,9.36
2023-11-18T22:19:18.569Z,9.40
2023-11-18T22:21:46.441Z,9.37
2023-11-18T22:24:15.458Z,9.31
2023-11-18T22:26:44.283Z,9.43
2023-11-18T22:29:15.460Z,9.50
2023-11-18T22:31:46.105Z,9.48
2023-11-18T22:34:14.142Z,9.41
2023-11-18T22:36:43.710Z,9.61
2023-11-18T22:39:12.297Z,9.71
2023-11-18T22:41:41.721Z,9.59
2023-11-18T22:44:10.025Z,9.75
2023-11-18T22:46:39.224Z,9.70
2023-11-18T22:49:11.589Z,9.68
2023-11-18T22:51:39.444Z,9.77
2023-11-18T22:54:11.777Z,9.84
2023-11-18T22:56:39.704Z,9.88
2023-11-18T22:59:08.202Z,9.89
2023-11-18T23:01:37.866Z,9.97
2023-11-18T23:04:12.728Z,9.97
2023-11-18T23:06:41.947Z,10.04
2023-11-18T23:09:13.353Z,10.03
2023-11-18T23:11:41.965Z,10.00
2023-11-18T23:14:09.768Z,10.11
2023-11-18T23:16:37.612Z,9.94
2023-11-18T23:19:07.822Z,10.19
2023-11-18T23:21:37.135Z,10.19
2023-11-18T23:24:05.570Z,10.08
2023-11-18T23:26:33.395Z,10.11
2023-11-18T23:29:01.207Z,10.18
2023-11-18T23:31:29.439Z,10.31
2023-11-18T23:33:59.148Z,10.22
2023-11-18T23:36:27.132Z,10.25
2023-11-18T23:39:02.639Z,10.27
2023-11-18T23:41:31.059Z,10.35
2023-11-18T23:43:59.522Z,10.44
2023-11-18T23:46:27.944Z,10.44
2023-11-18T23:48:55.919Z,10.46
2023-11-18T23:51:23.749Z,10.46
2023-11-18T23:53:52.338Z,10.25
2023-11-18T23:56:21.602Z,10.35
2023-11-18T23:58:49.472Z,10.27
